Time;durP1;ratioP1;P1;durP2;ratioP2;P2;SDS_P1;SDS_P2;PMS_P1;PMS_P2;Temp;Humidity;BMP_temperature;BMP_pressure;BME280_temperature;BME280_humidity;BME280_pressure;Samples;Min_cycle;Max_cycle;Signal;HPM_P1;HPM_P2
2021/12/10 00:02:10;;;;;;;4.97;3.23;;;4.80;99.90;;;;;;4996744;28;20465;-55
2021/12/10 00:04:40;;;;;;;4.37;2.63;;;4.80;99.90;;;;;;5013604;28;20842;-55
2021/12/10 00:07:26;;;;;;;7.60;2.50;;;4.80;99.90;;;;;;4996513;28;20403;-51
2021/12/10 00:09:58;;;;;;;7.33;3.17;;;4.50;99.90;;;;;;4996411;28;20480;-52
2021/12/10 00:12:31;;;;;;;4.27;2.73;;;4.50;99.90;;;;;;4964710;28;20557;-53
2021/12/10 00:14:57;;;;;;;9.43;3.20;;;4.40;99.90;;;;;;5013677;28;20387;-52
2021/12/10 00:17:23;;;;;;;5.33;2.87;;;4.20;99.90;;;;;;4979735;28;20426;-55
2021/12/10 00:19:55;;;;;;;5.40;2.53;;;4.00;99.90;;;;;;4995213;28;20204;-55
2021/12/10 00:22:30;;;;;;;4.10;2.60;;;4.10;99.90;;;;;;4997525;28;20470;-54
2021/12/10 00:24:55;;;;;;;4.13;2.67;;;4.10;99.90;;;;;;5001089;28;20879;-53
2021/12/10 00:27:28;;;;;;;4.43;2.50;;;4.20;99.90;;;;;;5018140;28;20418;-56
2021/12/10 00:30:04;;;;;;;3.20;2.37;;;4.30;99.90;;;;;;5001096;28;20220;-55
2021/12/10 00:32:35;;;;;;;4.27;3.00;;;4.30;99.90;;;;;;4984766;28;20453;-53
2021/12/10 00:35:13;;;;;;;3.83;2.67;;;4.20;99.90;;;;;;5017294;28;20392;-56
2021/12/10 00:37:39;;;;;;;4.90;2.40;;;4.20;99.90;;;;;;4999810;28;20390;-55
2021/12/10 00:40:08;;;;;;;7.63;3.17;;;4.20;99.90;;;;;;4984123;28;20441;-55
2021/12/10 00:42:34;;;;;;;4.40;2.47;;;4.20;99.90;;;;;;4984340;28;20445;-54
2021/12/10 00:45:04;;;;;;;4.77;2.47;;;4.30;99.90;;;;;;5017484;28;20410;-56
2021/12/10 00:47:30;;;;;;;4.97;2.70;;;4.30;99.90;;;;;;4999932;28;20911;-55
2021/12/10 00:49:57;;;;;;;27.67;25.50;;;4.10;99.90;;;;;;4982682;28;20462;-55
2021/12/10 00:52:23;;;;;;;8.40;7.53;;;4.00;99.90;;;;;;5016922;28;20454;-56
2021/12/10 00:54:50;;;;;;;4.93;2.50;;;4.10;99.90;;;;;;4999503;28;20933;-54
2021/12/10 00:57:17;;;;;;;5.47;2.77;;;4.10;99.90;;;;;;4999998;28;20506;-52
2021/12/10 00:59:44;;;;;;;6.03;2.53;;;4.00;99.90;;;;;;5017041;28;20458;-56
2021/12/10 01:02:12;;;;;;;3.10;2.33;;;4.00;99.90;;;;;;4983212;28;20406;-53
2021/12/10 01:04:42;;;;;;;4.20;2.17;;;3.90;99.90;;;;;;4998688;28;20779;-55
2021/12/10 01:07:13;;;;;;;7.10;3.00;;;4.00;99.90;;;;;;5016802;28;20913;-52
2021/12/10 01:09:43;;;;;;;6.47;2.63;;;4.00;99.90;;;;;;4983209;28;20430;-53
2021/12/10 01:12:34;;;;;;;4.20;2.43;;;4.00;99.90;;;;;;5016489;28;20840;-55
2021/12/10 01:15:21;;;;;;;4.90;2.07;;;4.10;99.90;;;;;;4999212;28;20401;-53
2021/12/10 01:23:51;;;;;;;3.67;2.40;;;3.90;99.90;;;;;;4997384;28;20387;-54
2021/12/10 01:26:38;;;;;;;5.10;3.10;;;3.90;99.90;;;;;;4982633;28;20396;-54
2021/12/10 01:29:06;;;;;;;5.40;2.40;;;3.80;99.90;;;;;;4996676;28;20419;-55
2021/12/10 01:31:32;;;;;;;3.10;2.33;;;3.80;99.90;;;;;;4979000;28;20546;-56
2021/12/10 01:33:57;;;;;;;2.40;1.80;;;3.80;99.90;;;;;;4978414;28;20523;-54
2021/12/10 01:36:23;;;;;;;7.10;3.13;;;3.80;99.90;;;;;;4979078;28;20172;-55
2021/12/10 01:38:52;;;;;;;6.70;2.50;;;3.80;99.90;;;;;;4996653;28;20213;-56
2021/12/10 01:41:23;;;;;;;3.37;1.90;;;3.80;99.90;;;;;;4996443;28;20411;-55
2021/12/10 01:43:52;;;;;;;5.40;2.60;;;3.70;99.90;;;;;;4979915;28;20392;-54
2021/12/10 01:46:26;;;;;;;4.17;2.43;;;3.60;99.90;;;;;;4979411;28;20420;-56
2021/12/10 01:48:56;;;;;;;3.27;2.43;;;3.60;99.90;;;;;;5003577;28;20461;-58
2021/12/10 01:51:26;;;;;;;3.67;2.40;;;3.40;99.90;;;;;;4998496;28;20925;-55
2021/12/10 01:53:54;;;;;;;4.10;2.70;;;3.40;99.90;;;;;;4998199;28;20461;-54
2021/12/10 01:56:26;;;;;;;3.73;1.97;;;3.20;99.90;;;;;;4982105;28;20419;-56
2021/12/10 01:58:52;;;;;;;3.07;1.87;;;3.30;99.90;;;;;;4982241;28;20427;-55
2021/12/10 02:01:22;;;;;;;3.60;2.30;;;3.20;99.90;;;;;;4981918;28;20409;-55
2021/12/10 02:03:51;;;;;;;4.30;2.40;;;3.10;99.90;;;;;;4981473;28;20891;-53
2021/12/10 02:06:17;;;;;;;6.43;2.60;;;3.00;99.90;;;;;;4982169;28;20501;-52
2021/12/10 02:08:43;;;;;;;2.30;2.10;;;2.90;99.90;;;;;;4981676;28;20497;-54
2021/12/10 02:11:09;;;;;;;4.83;2.30;;;3.00;99.90;;;;;;4998077;28;20877;-56
2021/12/10 02:13:38;;;;;;;3.57;1.90;;;3.10;99.90;;;;;;4997633;28;20407;-54
2021/12/10 02:16:05;;;;;;;3.20;1.93;;;3.20;99.90;;;;;;4998283;28;20414;-55
2021/12/10 02:18:31;;;;;;;4.77;2.17;;;3.20;99.90;;;;;;4997310;28;20492;-56
2021/12/10 02:21:03;;;;;;;3.57;2.23;;;3.20;99.90;;;;;;4997752;28;20399;-55
2021/12/10 02:23:37;;;;;;;4.00;1.93;;;3.10;99.90;;;;;;5015517;28;20579;-54
2021/12/10 02:26:06;;;;;;;4.80;1.90;;;3.00;99.90;;;;;;5015388;28;20412;-55
2021/12/10 02:28:33;;;;;;;3.10;2.00;;;3.00;99.90;;;;;;4997926;28;20415;-54
2021/12/10 02:30:59;;;;;;;6.40;1.63;;;2.90;99.90;;;;;;5015295;28;20407;-55
2021/12/10 02:33:26;;;;;;;3.57;2.20;;;3.10;99.90;;;;;;4997087;28;20411;-53
2021/12/10 02:35:52;;;;;;;5.10;2.23;;;2.90;99.90;;;;;;4969839;28;20443;-52
2021/12/10 02:38:19;;;;;;;3.80;1.90;;;2.80;99.90;;;;;;4997348;28;20433;-53
2021/12/10 02:40:48;;;;;;;6.60;2.33;;;2.70;99.90;;;;;;4999086;28;20415;-54
2021/12/10 02:43:16;;;;;;;2.30;1.73;;;2.70;99.90;;;;;;4981367;28;20794;-54
2021/12/10 02:45:45;;;;;;;5.23;2.23;;;2.70;99.90;;;;;;4997123;28;20407;-54
2021/12/10 02:50:44;;;;;;;3.90;1.77;;;2.80;99.90;;;;;;4986897;28;20463;-52
2021/12/10 02:53:15;;;;;;;3.50;1.97;;;2.90;99.90;;;;;;4979588;28;20453;-50
2021/12/10 02:55:41;;;;;;;4.83;1.80;;;2.90;99.90;;;;;;4974964;28;20913;-51
2021/12/10 02:58:10;;;;;;;5.30;2.43;;;3.00;99.90;;;;;;4975350;28;20405;-52
2021/12/10 03:01:07;;;;;;;3.20;2.00;;;2.90;99.90;;;;;;4970076;28;20564;-56
2021/12/10 03:03:34;;;;;;;4.83;2.00;;;3.00;99.90;;;;;;4953174;29;20413;-51
2021/12/10 03:06:08;;;;;;;4.60;1.73;;;3.00;99.90;;;;;;4938492;29;20402;-55
2021/12/10 03:08:34;;;;;;;4.97;2.10;;;3.00;99.90;;;;;;4939477;28;20760;-54
2021/12/10 03:11:00;;;;;;;2.60;1.63;;;3.10;99.90;;;;;;4938380;29;20409;-53
2021/12/10 03:13:26;;;;;;;3.23;2.13;;;3.00;99.90;;;;;;4938600;29;20181;-52
2021/12/10 03:15:52;;;;;;;3.47;1.50;;;3.00;99.90;;;;;;4938886;29;20543;-54
2021/12/10 03:18:19;;;;;;;5.37;1.87;;;3.00;99.90;;;;;;4955909;28;20185;-53
2021/12/10 03:20:46;;;;;;;5.90;2.33;;;3.10;99.90;;;;;;4973518;28;20405;-55
2021/12/10 03:23:13;;;;;;;4.70;1.80;;;3.00;99.90;;;;;;4973462;28;20404;-53
2021/12/10 03:25:39;;;;;;;3.03;1.80;;;3.00;99.90;;;;;;4974518;28;21030;-54
2021/12/10 03:28:05;;;;;;;5.00;2.10;;;3.00;99.90;;;;;;4974839;28;20417;-51
2021/12/10 03:30:35;;;;;;;2.47;1.83;;;3.00;99.90;;;;;;4957218;28;20515;-56
2021/12/10 03:33:01;;;;;;;7.73;2.90;;;3.00;99.90;;;;;;4973498;28;20282;-56
2021/12/10 03:35:35;;;;;;;5.97;2.73;;;3.00;99.90;;;;;;4972824;28;20495;-51
2021/12/10 03:38:04;;;;;;;4.33;2.50;;;2.90;99.90;;;;;;4957336;28;20914;-52
2021/12/10 03:40:30;;;;;;;3.70;2.07;;;2.90;99.90;;;;;;4957420;28;20425;-57
2021/12/10 03:42:58;;;;;;;8.87;2.27;;;2.90;99.90;;;;;;4974405;28;20405;-52
2021/12/10 03:45:31;;;;;;;3.90;1.90;;;2.90;99.90;;;;;;4957317;28;20533;-55
2021/12/10 03:47:58;;;;;;;3.77;2.10;;;2.80;99.90;;;;;;4973244;28;20393;-54
2021/12/10 03:50:29;;;;;;;4.17;2.73;;;2.80;99.90;;;;;;4973848;28;20440;-54
2021/12/10 03:52:55;;;;;;;6.70;2.63;;;2.90;99.90;;;;;;4957766;28;20435;-55
2021/12/10 03:55:22;;;;;;;3.20;2.00;;;2.90;99.90;;;;;;4974966;28;20409;-55
2021/12/10 03:57:49;;;;;;;4.43;2.30;;;3.00;99.90;;;;;;4960623;28;20404;-56
2021/12/10 04:00:18;;;;;;;8.20;2.50;;;3.00;99.90;;;;;;4961825;28;20428;-53
2021/12/10 04:02:44;;;;;;;3.17;2.60;;;2.70;99.90;;;;;;4977709;28;20432;-54
2021/12/10 04:05:10;;;;;;;2.90;2.10;;;2.70;99.90;;;;;;4978449;28;20519;-55
2021/12/10 04:07:36;;;;;;;6.63;2.90;;;2.70;99.90;;;;;;4978534;28;20416;-55
2021/12/10 04:10:05;;;;;;;8.77;2.40;;;2.60;99.90;;;;;;4961619;28;20203;-55
2021/12/10 04:12:31;;;;;;;3.90;2.90;;;2.50;99.90;;;;;;4961510;28;20192;-55
2021/12/10 04:14:57;;;;;;;5.00;2.80;;;2.50;99.90;;;;;;4961205;28;20455;-54
2021/12/10 04:17:23;;;;;;;6.73;3.07;;;2.50;99.90;;;;;;4978386;28;20535;-53
2021/12/10 04:19:50;;;;;;;7.03;2.87;;;2.50;99.90;;;;;;4960047;28;20450;-52
2021/12/10 04:22:17;;;;;;;5.40;3.07;;;2.60;99.90;;;;;;4977078;28;20420;-54
2021/12/10 04:24:43;;;;;;;5.03;3.00;;;2.50;99.90;;;;;;4978035;28;20409;-51
2021/12/10 04:27:11;;;;;;;3.63;3.00;;;2.50;99.90;;;;;;4976937;28;20470;-56
2021/12/10 04:29:38;;;;;;;8.37;2.93;;;2.50;99.90;;;;;;4976810;28;20443;-55
2021/12/10 04:32:05;;;;;;;4.20;3.10;;;2.50;99.90;;;;;;4976745;28;20531;-52
2021/12/10 04:34:31;;;;;;;3.40;3.10;;;2.40;99.90;;;;;;4959876;28;20454;-53
2021/12/10 04:36:59;;;;;;;5.63;3.40;;;2.30;99.90;;;;;;4977638;28;20899;-53
2021/12/10 04:39:26;;;;;;;5.10;2.83;;;2.30;99.90;;;;;;4977542;28;20180;-53
2021/12/10 04:41:52;;;;;;;6.00;3.70;;;2.30;99.90;;;;;;4977570;28;20503;-53
2021/12/10 04:44:18;;;;;;;4.47;3.67;;;2.40;99.90;;;;;;4977758;28;20449;-53
2021/12/10 04:46:44;;;;;;;5.90;3.60;;;2.30;99.90;;;;;;4977448;28;20459;-53
2021/12/10 04:49:13;;;;;;;7.23;4.23;;;2.30;99.90;;;;;;4976648;28;20470;-55
2021/12/10 04:51:48;;;;;;;8.20;4.27;;;2.30;99.90;;;;;;4977496;28;20455;-52
2021/12/10 04:54:15;;;;;;;5.30;4.03;;;2.30;99.90;;;;;;4977640;28;20395;-55
2021/12/10 04:56:42;;;;;;;12.00;3.97;;;2.10;99.90;;;;;;4977490;28;20408;-51
2021/12/10 04:59:11;;;;;;;4.73;3.50;;;2.10;99.90;;;;;;4977084;28;20471;-53
2021/12/10 05:01:37;;;;;;;8.20;4.73;;;2.20;99.90;;;;;;4977177;28;20893;-52
2021/12/10 05:04:07;;;;;;;4.70;3.70;;;2.30;99.90;;;;;;4976618;28;20459;-55
2021/12/10 05:06:33;;;;;;;7.40;4.70;;;2.30;99.90;;;;;;4977313;28;20513;-56
2021/12/10 05:08:59;;;;;;;6.13;3.90;;;2.30;99.90;;;;;;4975938;28;20425;-52
2021/12/10 05:11:25;;;;;;;4.63;3.90;;;2.40;99.90;;;;;;4977165;28;20801;-49
2021/12/10 05:13:51;;;;;;;7.30;4.80;;;2.40;99.90;;;;;;4977012;28;20409;-57
2021/12/10 05:16:24;;;;;;;5.43;4.53;;;2.40;99.90;;;;;;4977165;28;20228;-54
2021/12/10 05:18:56;;;;;;;7.10;4.70;;;2.40;99.90;;;;;;4976192;28;21008;-54
2021/12/10 05:21:22;;;;;;;4.80;4.27;;;2.40;99.90;;;;;;4977084;28;20488;-52
2021/12/10 05:23:47;;;;;;;8.40;5.97;;;2.50;99.90;;;;;;4959382;28;20424;-54
2021/12/10 05:26:13;;;;;;;5.27;4.77;;;2.50;99.90;;;;;;4976674;28;20443;-54
2021/12/10 05:28:39;;;;;;;7.63;5.87;;;2.50;99.90;;;;;;4976853;28;20197;-53
2021/12/10 05:31:05;;;;;;;6.27;5.00;;;2.40;99.90;;;;;;4976517;28;20235;-52
2021/12/10 05:33:31;;;;;;;5.97;5.00;;;2.30;99.90;;;;;;4976559;28;20172;-52
2021/12/10 05:35:59;;;;;;;5.17;4.40;;;2.30;99.90;;;;;;4976168;28;20409;-52
2021/12/10 05:38:25;;;;;;;8.97;5.80;;;2.40;99.90;;;;;;4974322;28;20420;-57
2021/12/10 05:40:53;;;;;;;9.90;5.90;;;2.40;99.90;;;;;;4979088;28;20441;-57
2021/12/10 05:43:19;;;;;;;7.03;5.33;;;2.30;99.90;;;;;;4976357;28;20801;-56
2021/12/10 05:45:45;;;;;;;13.63;6.50;;;2.30;99.90;;;;;;4975959;28;20447;-53
2021/12/10 05:48:11;;;;;;;6.63;5.23;;;2.40;99.90;;;;;;4976186;28;20969;-56
2021/12/10 05:50:38;;;;;;;5.93;5.33;;;2.40;99.90;;;;;;4975707;28;20476;-52
2021/12/10 05:53:05;;;;;;;12.73;6.70;;;2.40;99.90;;;;;;4976590;28;20440;-56
2021/12/10 05:55:31;;;;;;;7.97;5.90;;;2.40;99.90;;;;;;4976448;28;20433;-55
2021/12/10 05:57:57;;;;;;;7.53;5.70;;;2.40;99.90;;;;;;4976168;28;20435;-56
2021/12/10 06:00:30;;;;;;;8.80;6.07;;;2.30;99.90;;;;;;4975933;28;20190;-57
2021/12/10 06:02:56;;;;;;;8.03;5.93;;;2.40;99.90;;;;;;4976281;28;20160;-55
2021/12/10 06:05:23;;;;;;;7.50;6.60;;;2.30;99.90;;;;;;4975492;28;20416;-53
2021/12/10 06:07:49;;;;;;;12.20;7.20;;;2.30;99.90;;;;;;4975840;28;20423;-56
2021/12/10 06:10:17;;;;;;;9.30;6.87;;;2.20;99.90;;;;;;4975806;28;20444;-53
2021/12/10 06:12:46;;;;;;;14.00;9.20;;;2.10;99.90;;;;;;4975679;28;20496;-55
2021/12/10 06:15:13;;;;;;;14.03;8.47;;;2.00;99.90;;;;;;4976350;28;20396;-54
2021/12/10 06:17:39;;;;;;;11.13;7.60;;;2.00;99.90;;;;;;4975770;28;20409;-54
2021/12/10 06:20:07;;;;;;;12.30;7.67;;;2.00;99.90;;;;;;4973604;28;20444;-57
2021/12/10 06:22:33;;;;;;;12.67;6.77;;;2.00;99.90;;;;;;4975946;28;20173;-54
2021/12/10 06:24:58;;;;;;;9.50;6.50;;;2.10;99.90;;;;;;4976090;28;20469;-57
2021/12/10 06:27:24;;;;;;;9.53;7.47;;;1.80;99.90;;;;;;4975689;28;20208;-56
2021/12/10 06:29:50;;;;;;;8.53;6.50;;;1.90;99.90;;;;;;4975561;28;20201;-53
2021/12/10 06:32:16;;;;;;;10.77;7.97;;;2.00;99.90;;;;;;4975363;28;20197;-57
2021/12/10 06:34:41;;;;;;;7.70;6.50;;;2.00;99.90;;;;;;4975204;28;20180;-57
2021/12/10 06:37:07;;;;;;;7.33;6.30;;;2.20;99.90;;;;;;4975418;28;20631;-54
2021/12/10 06:39:33;;;;;;;10.07;7.80;;;2.30;99.90;;;;;;4974014;28;20524;-55
2021/12/10 06:41:59;;;;;;;8.77;7.40;;;2.30;99.90;;;;;;4975365;28;20216;-53
2021/12/10 06:44:25;;;;;;;10.33;8.53;;;2.30;99.90;;;;;;4975101;28;20657;-57
2021/12/10 06:46:51;;;;;;;9.83;8.50;;;2.40;99.90;;;;;;4975256;28;20492;-52
2021/12/10 06:49:18;;;;;;;11.33;7.37;;;2.40;99.90;;;;;;4974221;28;20224;-56
2021/12/10 06:51:44;;;;;;;12.53;7.47;;;2.40;99.90;;;;;;4975133;28;20451;-57
2021/12/10 06:54:10;;;;;;;12.63;8.77;;;2.30;99.90;;;;;;4975035;28;20397;-56
2021/12/10 06:56:37;;;;;;;10.50;8.93;;;2.20;99.90;;;;;;4975324;28;20412;-54
2021/12/10 06:59:06;;;;;;;10.60;8.10;;;2.20;99.90;;;;;;4975058;28;20924;-55
2021/12/10 07:01:40;;;;;;;11.40;7.37;;;2.20;99.90;;;;;;4974767;28;20409;-55
2021/12/10 07:04:10;;;;;;;11.33;8.00;;;2.10;99.90;;;;;;4974570;28;20435;-51
2021/12/10 07:06:37;;;;;;;10.80;8.50;;;2.20;99.90;;;;;;4975115;28;20411;-55
2021/12/10 07:09:08;;;;;;;7.90;7.20;;;2.20;99.90;;;;;;4974719;28;20429;-52
2021/12/10 07:11:34;;;;;;;8.93;7.53;;;1.90;99.90;;;;;;4974694;28;20802;-57
2021/12/10 07:14:00;;;;;;;9.60;6.90;;;1.90;99.90;;;;;;4974629;28;20746;-56
2021/12/10 07:16:28;;;;;;;13.23;9.00;;;2.10;99.90;;;;;;4974734;28;20460;-54
2021/12/10 07:18:55;;;;;;;10.77;8.13;;;2.20;99.90;;;;;;4974782;28;20607;-56
2021/12/10 07:21:21;;;;;;;9.63;7.63;;;2.20;99.90;;;;;;4972887;28;20471;-52
2021/12/10 07:23:46;;;;;;;11.30;8.60;;;2.30;99.90;;;;;;4973521;28;20775;-56
2021/12/10 07:26:13;;;;;;;10.70;8.80;;;2.30;99.90;;;;;;4974435;28;20177;-57
2021/12/10 07:28:40;;;;;;;11.20;8.30;;;2.20;99.90;;;;;;4973643;28;20432;-57
2021/12/10 07:31:07;;;;;;;8.80;7.90;;;2.20;99.90;;;;;;4974721;28;20524;-51
2021/12/10 07:33:33;;;;;;;10.87;7.93;;;2.30;99.90;;;;;;4973710;28;20408;-52
2021/12/10 07:35:59;;;;;;;15.20;7.97;;;2.30;99.90;;;;;;4956885;28;20463;-55
2021/12/10 07:38:25;;;;;;;13.87;8.40;;;2.40;99.90;;;;;;4973815;28;20166;-57
2021/12/10 07:40:51;;;;;;;15.67;11.07;;;2.40;99.90;;;;;;4974432;28;20216;-54
2021/12/10 07:43:17;;;;;;;9.90;8.23;;;2.40;99.90;;;;;;4974974;28;20412;-54
2021/12/10 07:45:46;;;;;;;12.90;8.13;;;2.50;99.90;;;;;;4959573;28;20491;-57
2021/12/10 07:48:15;;;;;;;10.00;7.50;;;2.60;99.90;;;;;;4957094;28;20956;-58
2021/12/10 07:50:50;;;;;;;9.40;7.40;;;2.70;99.90;;;;;;4972384;28;20480;-55
2021/12/10 07:53:19;;;;;;;9.10;7.37;;;2.90;99.90;;;;;;4973666;28;20785;-55
2021/12/10 07:55:44;;;;;;;12.37;7.73;;;3.00;99.90;;;;;;4957997;28;20789;-56
2021/12/10 07:58:10;;;;;;;9.27;7.17;;;3.00;99.90;;;;;;4972957;28;20411;-56
2021/12/10 08:00:40;;;;;;;9.20;7.80;;;3.00;99.90;;;;;;4940697;28;20189;-55
2021/12/10 08:03:06;;;;;;;14.00;7.87;;;2.90;99.90;;;;;;4972891;28;20174;-54
2021/12/10 08:05:32;;;;;;;10.10;8.00;;;2.70;99.90;;;;;;4972371;28;20416;-51
2021/12/10 08:07:59;;;;;;;11.43;8.10;;;2.70;99.90;;;;;;4973208;28;20512;-55
2021/12/10 08:10:25;;;;;;;9.23;6.87;;;2.80;99.90;;;;;;4972889;28;20433;-55
2021/12/10 08:12:51;;;;;;;13.27;8.60;;;3.00;99.90;;;;;;4956666;28;20499;-57
2021/12/10 08:15:17;;;;;;;7.07;6.37;;;3.10;99.90;;;;;;4957179;28;20901;-55
2021/12/10 08:17:44;;;;;;;8.27;6.80;;;3.30;99.90;;;;;;4973223;28;20170;-55
2021/12/10 08:20:13;;;;;;;7.83;7.03;;;3.30;99.90;;;;;;4972855;28;20511;-55
2021/12/10 08:22:40;;;;;;;11.10;7.70;;;3.40;99.90;;;;;;4972708;28;20910;-57
2021/12/10 08:25:06;;;;;;;9.43;7.13;;;3.40;99.90;;;;;;4956666;28;20420;-53
2021/12/10 08:27:32;;;;;;;11.47;7.33;;;3.50;99.90;;;;;;4972724;28;20788;-56
2021/12/10 08:30:03;;;;;;;7.87;6.63;;;3.40;99.90;;;;;;4956505;28;20424;-55
2021/12/10 08:32:30;;;;;;;12.50;8.50;;;3.50;99.90;;;;;;4961258;28;20455;-56
2021/12/10 08:34:56;;;;;;;9.90;6.63;;;3.70;99.90;;;;;;4937335;29;20492;-55
2021/12/10 08:37:22;;;;;;;8.30;7.10;;;3.80;99.90;;;;;;4937623;29;21016;-57
2021/12/10 08:39:47;;;;;;;11.33;6.53;;;3.80;99.90;;;;;;4937519;29;20200;-57
2021/12/10 08:42:14;;;;;;;10.70;7.90;;;3.90;99.90;;;;;;4937818;29;20265;-56
2021/12/10 08:44:42;;;;;;;7.47;6.60;;;4.00;99.90;;;;;;4940195;29;20174;-55
2021/12/10 08:47:09;;;;;;;6.90;5.70;;;4.00;99.90;;;;;;4941894;29;20492;-57
2021/12/10 08:49:36;;;;;;;11.73;6.93;;;4.00;99.90;;;;;;4989719;23;20852;-59
2021/12/10 08:52:02;;;;;;;9.63;7.97;;;3.90;99.90;;;;;;4971677;28;20451;-57
2021/12/10 08:54:30;;;;;;;9.20;6.90;;;3.80;99.90;;;;;;4944402;28;20488;-57
2021/12/10 08:56:57;;;;;;;8.90;6.80;;;3.80;99.90;;;;;;4960357;28;20431;-58
2021/12/10 08:59:24;;;;;;;10.00;6.53;;;3.90;99.90;;;;;;4944370;28;20464;-53
2021/12/10 09:01:53;;;;;;;9.17;7.00;;;3.90;99.90;;;;;;4977458;28;20408;-52
2021/12/10 09:04:20;;;;;;;11.47;6.53;;;3.80;99.90;;;;;;4960028;28;20504;-54
2021/12/10 09:06:51;;;;;;;8.60;7.10;;;3.80;99.90;;;;;;4960030;28;20416;-52
2021/12/10 09:09:19;;;;;;;12.03;7.60;;;3.90;99.90;;;;;;4943827;28;20432;-55
2021/12/10 09:11:49;;;;;;;10.10;7.80;;;3.90;99.90;;;;;;4959920;28;20996;-56
2021/12/10 09:14:16;;;;;;;10.10;6.60;;;4.00;99.90;;;;;;4944115;28;20769;-58
2021/12/10 09:16:43;;;;;;;7.90;6.37;;;4.00;99.90;;;;;;4977124;28;20413;-59
2021/12/10 09:19:12;;;;;;;8.33;6.00;;;4.20;99.90;;;;;;4966822;28;20486;-51
2021/12/10 09:21:40;;;;;;;7.00;5.80;;;3.90;99.90;;;;;;4996088;28;20408;-55
2021/12/10 09:24:08;;;;;;;4.37;3.97;;;4.30;99.90;;;;;;4996509;28;20495;-53
2021/12/10 09:26:37;;;;;;;4.53;3.70;;;4.30;99.90;;;;;;4996425;28;20416;-52
2021/12/10 09:29:06;;;;;;;9.93;6.10;;;4.30;99.90;;;;;;4979209;28;20442;-54
2021/12/10 09:31:33;;;;;;;7.63;6.80;;;4.30;99.90;;;;;;4996361;28;20443;-54
2021/12/10 09:33:59;;;;;;;6.67;4.57;;;4.10;99.90;;;;;;4996306;28;20486;-52
2021/12/10 09:36:25;;;;;;;4.33;2.87;;;4.30;99.90;;;;;;4994594;28;20438;-60
2021/12/10 09:38:51;;;;;;;5.60;4.07;;;4.30;99.90;;;;;;4978763;28;20786;-52
2021/12/10 09:41:18;;;;;;;3.80;2.77;;;4.50;99.90;;;;;;4959404;28;20445;-51
2021/12/10 09:43:44;;;;;;;4.03;2.97;;;4.60;99.90;;;;;;4959479;28;20515;-51
2021/12/10 09:46:11;;;;;;;2.63;2.40;;;4.90;99.90;;;;;;4977021;28;20433;-54
2021/12/10 09:48:39;;;;;;;5.33;2.63;;;5.10;99.90;;;;;;4962157;28;20397;-56
2021/12/10 09:51:12;;;;;;;4.23;2.50;;;5.20;99.90;;;;;;4995236;28;20475;-55
2021/12/10 09:53:43;;;;;;;3.20;2.90;;;5.40;99.90;;;;;;4996046;28;20877;-60
2021/12/10 09:56:09;;;;;;;3.73;2.43;;;5.60;99.90;;;;;;4978431;28;20387;-60
2021/12/10 09:58:35;;;;;;;5.20;2.67;;;5.70;99.90;;;;;;4996300;28;20479;-52
2021/12/10 10:01:11;;;;;;;3.03;2.43;;;5.50;99.90;;;;;;4995804;28;20886;-51
2021/12/10 10:03:41;;;;;;;3.30;2.47;;;5.60;99.90;;;;;;4996028;28;20384;-55
2021/12/10 10:06:07;;;;;;;6.53;2.43;;;5.40;99.90;;;;;;4995224;28;20400;-53
2021/12/10 10:08:35;;;;;;;3.10;2.33;;;5.50;99.90;;;;;;4995614;28;20885;-53
2021/12/10 10:11:10;;;;;;;2.77;2.10;;;5.60;99.90;;;;;;4995958;28;20474;-56
2021/12/10 10:13:41;;;;;;;3.10;2.47;;;5.70;99.90;;;;;;4995664;28;20396;-55
2021/12/10 10:16:08;;;;;;;2.50;2.30;;;5.50;99.90;;;;;;4978191;28;20806;-52
2021/12/10 10:18:36;;;;;;;3.10;2.40;;;5.20;99.90;;;;;;4995776;28;20490;-53
2021/12/10 10:21:16;;;;;;;6.53;2.80;;;5.00;99.90;;;;;;4995089;28;20420;-58
2021/12/10 10:23:43;;;;;;;2.13;1.97;;;5.20;99.90;;;;;;4977886;28;20442;-58
2021/12/10 10:26:13;;;;;;;2.93;1.90;;;5.40;99.90;;;;;;4995627;28;20415;-60
2021/12/10 10:28:40;;;;;;;3.10;2.50;;;5.60;99.90;;;;;;4977139;28;20909;-51
2021/12/10 10:31:17;;;;;;;2.00;1.80;;;5.60;99.90;;;;;;4995140;28;20430;-52
2021/12/10 10:33:44;;;;;;;3.77;1.97;;;5.40;99.90;;;;;;4978719;28;20483;-53
2021/12/10 10:36:19;;;;;;;6.50;1.97;;;5.30;99.90;;;;;;4994558;28;20406;-54
2021/12/10 10:38:48;;;;;;;5.00;2.50;;;5.30;99.90;;;;;;4995306;28;20383;-57
2021/12/10 10:41:16;;;;;;;2.47;1.80;;;5.40;99.90;;;;;;4995274;28;20734;-59
2021/12/10 10:43:43;;;;;;;3.80;2.07;;;5.50;99.90;;;;;;4995130;28;20743;-59
2021/12/10 10:46:11;;;;;;;8.47;2.57;;;5.50;99.90;;;;;;4994852;28;20923;-59
2021/12/10 10:48:37;;;;;;;2.93;1.93;;;5.50;99.90;;;;;;4977304;28;20925;-53
2021/12/10 10:51:08;;;;;;;3.97;2.10;;;5.70;99.90;;;;;;4994166;28;20495;-53
2021/12/10 10:53:55;;;;;;;3.43;2.30;;;5.60;99.90;;;;;;4995574;28;20473;-55
2021/12/10 10:56:41;;;;;;;2.90;1.80;;;5.70;99.90;;;;;;4994761;28;20380;-51
2021/12/10 10:59:17;;;;;;;2.90;2.30;;;5.80;99.90;;;;;;4977129;28;20428;-56
2021/12/10 11:01:57;;;;;;;3.13;2.40;;;5.80;99.90;;;;;;4996286;28;20386;-56
2021/12/10 11:04:32;;;;;;;2.10;1.73;;;5.70;99.90;;;;;;4976362;28;20415;-52
2021/12/10 11:07:08;;;;;;;2.47;2.17;;;5.70;99.90;;;;;;4976180;28;20456;-51
2021/12/10 11:09:41;;;;;;;1.70;1.60;;;5.80;99.90;;;;;;4978104;28;20427;-57
2021/12/10 11:12:12;;;;;;;2.00;1.57;;;5.90;99.90;;;;;;4958556;28;21322;-58
2021/12/10 11:14:45;;;;;;;2.30;1.63;;;5.60;99.90;;;;;;4994111;28;20908;-60
2021/12/10 11:17:21;;;;;;;1.90;1.70;;;5.70;99.90;;;;;;4977094;28;20454;-59
2021/12/10 11:19:57;;;;;;;2.57;1.90;;;5.90;99.90;;;;;;4993920;28;20518;-53
2021/12/10 11:22:23;;;;;;;3.63;1.57;;;6.00;99.90;;;;;;4994157;28;20419;-54
2021/12/10 11:25:03;;;;;;;2.00;1.80;;;5.90;99.90;;;;;;4994774;28;20412;-56
2021/12/10 11:27:37;;;;;;;2.80;1.70;;;5.90;99.90;;;;;;4994497;28;20396;-59
2021/12/10 11:30:02;;;;;;;1.80;1.60;;;5.60;99.90;;;;;;4977001;28;20431;-58
2021/12/10 11:32:51;;;;;;;1.23;1.13;;;5.50;99.90;;;;;;4994383;28;20454;-60
2021/12/10 11:35:25;;;;;;;2.30;1.50;;;5.80;99.90;;;;;;4993809;28;20156;-59
2021/12/10 11:37:56;;;;;;;3.23;1.50;;;5.80;99.90;;;;;;4994017;28;20404;-54
2021/12/10 11:40:40;;;;;;;2.30;1.40;;;5.70;99.90;;;;;;4993949;28;20431;-52
2021/12/10 11:44:07;;;;;;;6.10;1.83;;;5.80;99.90;;;;;;4989860;28;20945;-53
2021/12/10 11:46:29;;;;;;;1.27;1.17;;;5.80;99.90;;;;;;4969388;28;20415;-54
2021/12/10 11:49:10;;;;;;;3.90;1.30;;;5.40;99.90;;;;;;4994071;28;20427;-52
2021/12/10 11:52:08;;;;;;;1.20;1.03;;;5.30;99.90;;;;;;4993380;28;20447;-60
2021/12/10 11:54:42;;;;;;;4.20;1.30;;;5.00;99.90;;;;;;4961324;28;20420;-60
2021/12/10 11:57:22;;;;;;;3.00;1.37;;;4.90;99.90;;;;;;4994198;28;20796;-60
2021/12/10 11:59:51;;;;;;;1.77;1.50;;;4.80;99.90;;;;;;4994193;28;20424;-59
2021/12/10 12:02:24;;;;;;;2.07;1.33;;;4.80;99.90;;;;;;4976735;28;20416;-59
2021/12/10 12:04:54;;;;;;;2.93;1.63;;;4.30;99.90;;;;;;4994845;28;20882;-56
2021/12/10 12:07:39;;;;;;;2.50;1.57;;;4.20;99.90;;;;;;4993709;28;20479;-59
2021/12/10 12:10:12;;;;;;;2.03;1.10;;;4.40;99.90;;;;;;4993849;28;20800;-59
2021/12/10 12:12:52;;;;;;;1.70;1.00;;;4.50;99.90;;;;;;4976444;28;20448;-60
2021/12/10 12:15:29;;;;;;;4.33;1.50;;;4.60;99.90;;;;;;4978401;28;20431;-59
2021/12/10 12:18:03;;;;;;;2.00;1.23;;;4.70;99.90;;;;;;4993998;28;20741;-53
2021/12/10 12:20:57;;;;;;;3.43;1.50;;;4.80;99.90;;;;;;4997335;28;20793;-53
2021/12/10 12:26:28;;;;;;;2.37;2.00;;;4.70;99.90;;;;;;4969750;28;20403;-56
2021/12/10 12:29:11;;;;;;;2.40;1.87;;;4.60;99.90;;;;;;4997863;28;20980;-52
2021/12/10 12:31:38;;;;;;;3.10;2.37;;;4.40;99.90;;;;;;4997742;28;20526;-55
2021/12/10 12:34:10;;;;;;;3.63;2.10;;;4.40;99.90;;;;;;4997356;28;20407;-53
2021/12/10 12:36:41;;;;;;;2.10;1.90;;;4.60;99.90;;;;;;4980321;28;20396;-55
2021/12/10 12:39:12;;;;;;;4.53;2.13;;;4.70;99.90;;;;;;4980309;28;20427;-52
2021/12/10 12:41:47;;;;;;;3.50;1.60;;;4.90;99.90;;;;;;4997846;28;20471;-65
2021/12/10 12:44:23;;;;;;;5.03;2.13;;;4.90;99.90;;;;;;4997596;28;20388;-60
2021/12/10 12:47:02;;;;;;;4.90;2.37;;;4.90;99.90;;;;;;4997753;28;20391;-59
2021/12/10 12:49:56;;;;;;;3.40;2.10;;;5.10;99.90;;;;;;4997011;28;20447;-60
2021/12/10 12:52:39;;;;;;;1.70;1.60;;;5.00;99.90;;;;;;4986815;28;20455;-60
2021/12/10 12:55:29;;;;;;;3.37;2.30;;;5.10;99.90;;;;;;4997413;28;20388;-60
2021/12/10 12:58:10;;;;;;;2.20;2.00;;;4.90;99.90;;;;;;4997284;28;20384;-55
2021/12/10 13:00:57;;;;;;;2.97;2.43;;;4.80;99.90;;;;;;4996753;28;20423;-55
2021/12/10 13:03:39;;;;;;;2.90;2.23;;;4.70;99.90;;;;;;4997285;28;20388;-58
2021/12/10 13:06:10;;;;;;;4.27;2.40;;;4.60;99.90;;;;;;4996003;28;20388;-57
2021/12/10 13:08:39;;;;;;;3.67;2.30;;;4.60;99.90;;;;;;4979279;28;20470;-55
2021/12/10 13:11:04;;;;;;;3.10;2.53;;;4.40;99.90;;;;;;4996753;28;20424;-53
2021/12/10 13:13:53;;;;;;;4.40;2.70;;;4.40;99.90;;;;;;4996989;28;21029;-54
2021/12/10 13:16:51;;;;;;;2.90;2.43;;;4.40;99.90;;;;;;4963353;28;20729;-53
2021/12/10 13:19:21;;;;;;;2.60;2.17;;;4.50;99.90;;;;;;4996848;28;20941;-53
2021/12/10 13:21:54;;;;;;;3.57;2.47;;;4.80;99.90;;;;;;4996130;28;20450;-53